createdAt,value
2023-03-20T00:02:20.843Z,100489.84
2023-03-20T00:04:47.893Z,100524.34
2023-03-20T00:07:14.890Z,100541.75
2023-03-20T00:09:42.545Z,100549.31
2023-03-20T00:12:15.734Z,100543.88
2023-03-20T00:14:42.892Z,100546.41
2023-03-20T00:17:18.436Z,100554.06
2023-03-20T00:19:46.255Z,100545.44
2023-03-20T00:22:13.188Z,100544.66
2023-03-20T00:24:40.149Z,100542.19
2023-03-20T00:27:07.507Z,100548.41
2023-03-20T00:29:34.749Z,100523.72
2023-03-20T00:32:01.740Z,100549.31
2023-03-20T00:34:29.781Z,100547.53
2023-03-20T00:36:58.274Z,100518.72
2023-03-20T00:39:25.694Z,100523.16
2023-03-20T00:41:58.672Z,100535.47
2023-03-20T00:44:28.412Z,100536.22
2023-03-20T00:46:58.525Z,100537.88
2023-03-20T00:49:28.707Z,100514.09
2023-03-20T00:51:56.512Z,100523.94
2023-03-20T00:54:25.491Z,100533.56
2023-03-20T00:57:00.334Z,100537.00
2023-03-20T00:59:32.046Z,100513.31
2023-03-20T01:02:01.480Z,100528.69
2023-03-20T01:04:37.489Z,100533.19
2023-03-20T01:07:06.309Z,100528.09
2023-03-20T01:09:33.439Z,100529.22
2023-03-20T01:12:01.574Z,100518.47
2023-03-20T01:14:28.752Z,100487.47
2023-03-20T01:16:56.110Z,100522.91
2023-03-20T01:19:23.216Z,100515.34
2023-03-20T01:21:50.883Z,100512.59
2023-03-20T01:24:17.940Z,100526.66
2023-03-20T01:26:46.432Z,100501.97
2023-03-20T01:29:22.397Z,100522.22
2023-03-20T01:31:51.448Z,100517.81
2023-03-20T01:34:21.295Z,100521.34
2023-03-20T01:36:57.688Z,100512.88
2023-03-20T01:39:35.200Z,100501.19
2023-03-20T01:42:05.935Z,100500.06
2023-03-20T01:44:36.099Z,100494.22
2023-03-20T01:47:11.713Z,100503.81
2023-03-20T01:50:33.135Z,100505.91
2023-03-20T01:53:19.301Z,100493.72
2023-03-20T01:55:56.269Z,100435.69
2023-03-20T01:58:32.458Z,100483.69
2023-03-20T02:01:00.316Z,100490.88
2023-03-20T02:03:27.666Z,100493.19
2023-03-20T02:06:08.586Z,100420.72
2023-03-20T02:08:54.383Z,100495.47
2023-03-20T02:11:25.591Z,100469.66
2023-03-20T02:13:55.473Z,100463.50
2023-03-20T02:16:24.328Z,100480.91
2023-03-20T02:19:08.012Z,100479.22
2023-03-20T02:21:44.228Z,100478.44
2023-03-20T02:24:15.540Z,100469.72
2023-03-20T02:27:08.678Z,100471.69
2023-03-20T02:30:07.480Z,100450.03
2023-03-20T02:32:39.861Z,100409.63
2023-03-20T02:35:35.093Z,100469.28
2023-03-20T02:38:21.193Z,100468.50
2023-03-20T02:41:04.183Z,100479.16
2023-03-20T02:44:01.409Z,100450.34
2023-03-20T02:46:34.647Z,100459.09
2023-03-20T02:49:16.502Z,100467.53
2023-03-20T02:52:11.869Z,100441.41
2023-03-20T02:54:55.066Z,100455.91
2023-03-20T02:57:44.485Z,100463.56
2023-03-20T03:00:21.212Z,100459.13
2023-03-20T03:02:55.441Z,100454.59
2023-03-20T03:05:31.222Z,100459.91
2023-03-20T03:08:01.198Z,100456.47
2023-03-20T03:10:58.325Z,100450.16
2023-03-20T03:13:29.509Z,100447.59
2023-03-20T03:16:04.434Z,100425.78
2023-03-20T03:18:34.648Z,100421.91
2023-03-20T03:21:06.885Z,100406.19
2023-03-20T03:23:44.785Z,100434.66
2023-03-20T03:26:36.385Z,100444.50
2023-03-20T03:29:11.904Z,100433.88
2023-03-20T03:31:39.445Z,100439.06
2023-03-20T03:34:09.361Z,100431.88
2023-03-20T03:36:41.524Z,100429.91
2023-03-20T03:39:25.013Z,100409.53
2023-03-20T03:41:52.835Z,100432.53
2023-03-20T03:44:35.652Z,100420.88
2023-03-20T03:47:32.462Z,100436.34
2023-03-20T03:50:06.312Z,100425.59
2023-03-20T03:52:35.183Z,100420.94
2023-03-20T03:55:14.913Z,100421.47
2023-03-20T03:58:04.896Z,100425.31
2023-03-20T04:00:34.250Z,100421.53
2023-03-20T04:03:01.637Z,100421.16
2023-03-20T04:05:31.944Z,100425.00
2023-03-20T04:08:01.514Z,100419.13
2023-03-20T04:10:28.607Z,100406.88
2023-03-20T04:12:55.577Z,100418.78
2023-03-20T04:15:22.568Z,100420.88
2023-03-20T04:17:49.810Z,100423.16
2023-03-20T04:20:17.866Z,100415.91
2023-03-20T04:22:46.717Z,100419.66
2023-03-20T04:25:22.502Z,100416.50
2023-03-20T04:27:52.727Z,100419.44
2023-03-20T04:30:53.639Z,100419.94
2023-03-20T04:33:33.703Z,100415.25
2023-03-20T04:36:26.917Z,100409.97
2023-03-20T04:38:57.582Z,100379.78
2023-03-20T04:41:25.759Z,100375.25
2023-03-20T04:43:55.772Z,100405.31
2023-03-20T04:46:23.287Z,100410.50
2023-03-20T04:48:51.079Z,100407.13
2023-03-20T04:51:19.057Z,100400.88
2023-03-20T04:53:49.965Z,100405.16
2023-03-20T04:56:17.612Z,100411.91
2023-03-20T04:58:46.596Z,100411.94
2023-03-20T05:01:14.683Z,100400.97
2023-03-20T05:03:42.113Z,100410.44
2023-03-20T05:06:09.850Z,100412.03
2023-03-20T05:08:40.290Z,100406.03
2023-03-20T05:11:08.370Z,100403.28
2023-03-20T05:13:55.916Z,100404.75
2023-03-20T05:16:41.271Z,100408.03
2023-03-20T05:19:31.268Z,100412.69
2023-03-20T05:22:04.375Z,100396.97
2023-03-20T05:24:51.725Z,100352.56
2023-03-20T05:27:37.645Z,100400.56
2023-03-20T05:30:24.581Z,100403.75
2023-03-20T05:32:52.545Z,100405.03
2023-03-20T05:35:29.093Z,100405.44
2023-03-20T05:38:05.836Z,100400.94
2023-03-20T05:41:00.914Z,100406.25
2023-03-20T05:43:37.320Z,100390.88
2023-03-20T05:46:33.013Z,100387.97
2023-03-20T05:49:09.523Z,100393.56
2023-03-20T05:51:57.125Z,100391.44
2023-03-20T05:54:31.738Z,100394.59
2023-03-20T05:57:08.590Z,100387.16
2023-03-20T05:59:50.643Z,100394.47
2023-03-20T06:02:47.762Z,100407.16
2023-03-20T06:05:37.909Z,100403.81
2023-03-20T06:08:05.837Z,100410.00
2023-03-20T06:10:33.204Z,100407.56
2023-03-20T06:13:01.336Z,100405.75
2023-03-20T06:15:29.852Z,100401.38
2023-03-20T06:18:05.804Z,100384.47
2023-03-20T06:20:36.065Z,100405.97
2023-03-20T06:23:04.840Z,100401.56
2023-03-20T06:25:31.865Z,100388.06
2023-03-20T06:27:59.493Z,100362.19
2023-03-20T06:30:27.190Z,100402.13
2023-03-20T06:32:55.048Z,100392.06
2023-03-20T06:35:25.174Z,100357.03
2023-03-20T06:37:52.171Z,100363.16
2023-03-20T06:40:23.633Z,100384.25
2023-03-20T06:42:51.290Z,100370.94
2023-03-20T06:45:19.592Z,100351.47
2023-03-20T06:48:01.131Z,100376.00
2023-03-20T06:50:28.596Z,100389.06
2023-03-20T06:52:59.384Z,100379.63
2023-03-20T06:55:32.077Z,100374.25
2023-03-20T06:57:59.117Z,100321.13
2023-03-20T07:00:27.468Z,100361.03
2023-03-20T07:02:54.627Z,100353.31
2023-03-20T07:05:22.406Z,100362.16
2023-03-20T07:07:49.664Z,100357.66
2023-03-20T07:10:17.435Z,100316.84
2023-03-20T07:12:51.085Z,100346.97
2023-03-20T07:15:19.135Z,100342.19
2023-03-20T07:17:46.314Z,100355.63
2023-03-20T07:20:14.335Z,100346.84
2023-03-20T07:22:42.060Z,100351.84
2023-03-20T07:25:39.450Z,100350.94
2023-03-20T07:28:09.054Z,100346.72
2023-03-20T07:30:38.824Z,100332.81
2023-03-20T07:33:06.577Z,100347.50
2023-03-20T07:35:35.047Z,100335.72
2023-03-20T07:38:02.797Z,100332.63
2023-03-20T07:40:29.987Z,100340.88
2023-03-20T07:43:02.075Z,100348.16
2023-03-20T07:45:50.216Z,100343.63
2023-03-20T07:48:19.711Z,100329.16
2023-03-20T07:50:46.730Z,100332.59
2023-03-20T07:53:13.878Z,100319.94
2023-03-20T07:55:40.873Z,100341.19
2023-03-20T07:58:10.612Z,100333.59
2023-03-20T08:00:37.895Z,100335.28
2023-03-20T08:03:05.450Z,100334.78
2023-03-20T08:05:33.266Z,100331.53
2023-03-20T08:08:00.461Z,100334.19
2023-03-20T08:10:27.813Z,100330.63
2023-03-20T08:12:55.146Z,100324.44
2023-03-20T08:15:22.446Z,100325.44
2023-03-20T08:17:49.780Z,100286.19
2023-03-20T08:20:17.606Z,100306.22
2023-03-20T08:22:45.229Z,100318.44
2023-03-20T08:25:12.576Z,100298.09
2023-03-20T08:27:40.250Z,100311.00
2023-03-20T08:30:09.039Z,100297.03
2023-03-20T08:32:36.696Z,100309.28
2023-03-20T08:35:03.770Z,100307.78
2023-03-20T08:37:30.771Z,100295.59
2023-03-20T08:39:57.749Z,100292.72
2023-03-20T08:42:24.784Z,100302.56
2023-03-20T08:44:52.074Z,100285.25
2023-03-20T08:47:19.741Z,100287.94
2023-03-20T08:49:47.215Z,100295.31
2023-03-20T08:52:14.207Z,100293.38
2023-03-20T08:54:41.233Z,100286.97
2023-03-20T08:57:08.221Z,100294.34
2023-03-20T08:59:35.670Z,100273.31
2023-03-20T09:02:02.737Z,100292.94
2023-03-20T09:04:29.990Z,100253.03
2023-03-20T09:06:57.163Z,100279.31
2023-03-20T09:09:29.687Z,100240.25
2023-03-20T09:12:01.793Z,100283.59
2023-03-20T09:14:29.431Z,100288.75
2023-03-20T09:16:56.474Z,100280.91
2023-03-20T09:19:23.522Z,100280.56
2023-03-20T09:21:50.622Z,100286.47
2023-03-20T09:24:17.590Z,100291.03
2023-03-20T09:26:44.538Z,100283.31
2023-03-20T09:29:11.732Z,100265.03
2023-03-20T09:31:38.780Z,100283.47
2023-03-20T09:34:06.409Z,100227.88
2023-03-20T09:36:33.803Z,100268.41
2023-03-20T09:39:01.041Z,100273.09
2023-03-20T09:41:28.877Z,100275.00
2023-03-20T09:44:09.741Z,100270.78
2023-03-20T09:47:19.699Z,100261.00
2023-03-20T09:50:05.394Z,100258.16
2023-03-20T09:52:41.087Z,100242.47
2023-03-20T09:55:26.614Z,100238.09
2023-03-20T09:57:58.498Z,100241.44
2023-03-20T10:00:28.975Z,100245.06
2023-03-20T10:03:02.229Z,100239.00
2023-03-20T10:05:38.196Z,100252.13
2023-03-20T10:08:07.856Z,100241.09
2023-03-20T10:10:53.256Z,100225.72
2023-03-20T10:13:38.357Z,100246.78
2023-03-20T10:16:49.521Z,100232.91
2023-03-20T10:19:21.578Z,100237.28
2023-03-20T10:21:54.103Z,100225.94
2023-03-20T10:24:29.033Z,100209.34
2023-03-20T10:27:00.938Z,100215.44
2023-03-20T10:29:45.571Z,100204.03
2023-03-20T10:32:28.718Z,100205.72
2023-03-20T10:35:13.860Z,100190.78
2023-03-20T10:38:02.439Z,100203.84
2023-03-20T10:40:36.615Z,100202.97
2023-03-20T10:43:14.885Z,100202.16
2023-03-20T10:45:46.772Z,100207.63
2023-03-20T10:48:37.452Z,100200.63
2023-03-20T10:51:04.989Z,100203.19
2023-03-20T10:53:35.140Z,100198.81
2023-03-20T10:56:16.782Z,100190.94
2023-03-20T10:58:47.374Z,100181.22
2023-03-20T11:01:14.851Z,100181.28
2023-03-20T11:03:41.983Z,100184.00
2023-03-20T11:06:28.949Z,100175.31
2023-03-20T11:08:56.023Z,100178.63
2023-03-20T11:11:28.976Z,100175.13
2023-03-20T11:13:56.344Z,100168.91
2023-03-20T11:16:27.368Z,100174.91
2023-03-20T11:18:55.126Z,100148.84
2023-03-20T11:21:29.039Z,100161.91
2023-03-20T11:23:56.492Z,100164.59
2023-03-20T11:26:42.170Z,100160.28
2023-03-20T11:29:29.634Z,100105.44
2023-03-20T11:32:03.727Z,100157.69
2023-03-20T11:34:33.613Z,100142.94
2023-03-20T11:37:10.591Z,100144.72
2023-03-20T11:39:42.665Z,100152.59
2023-03-20T11:42:24.739Z,100134.31
2023-03-20T11:45:18.193Z,100145.66
2023-03-20T11:47:51.013Z,100145.56
2023-03-20T11:50:37.313Z,100135.91
2023-03-20T11:53:20.005Z,100131.47
2023-03-20T11:56:03.836Z,100121.72
2023-03-20T11:58:31.231Z,100123.22
2023-03-20T12:00:58.582Z,100124.81
2023-03-20T12:04:02.604Z,100109.81
2023-03-20T12:06:46.858Z,100106.84
2023-03-20T12:09:32.079Z,100114.53
2023-03-20T12:12:37.149Z,100109.19
2023-03-20T12:15:13.148Z,100099.66
2023-03-20T12:17:57.004Z,100095.13
2023-03-20T12:20:45.474Z,100084.38
2023-03-20T12:23:29.189Z,100074.47
2023-03-20T12:26:04.273Z,100077.97
2023-03-20T12:28:37.275Z,100089.25
2023-03-20T12:31:19.507Z,100080.47
2023-03-20T12:33:55.010Z,100084.59
2023-03-20T12:36:31.459Z,100078.28
2023-03-20T12:38:59.490Z,100072.91
2023-03-20T12:41:38.936Z,100057.97
2023-03-20T12:44:08.862Z,100078.00
2023-03-20T12:46:41.792Z,100076.00
2023-03-20T12:49:29.420Z,100065.34
2023-03-20T12:52:08.546Z,100060.88
2023-03-20T12:55:06.294Z,100063.38
2023-03-20T12:57:47.520Z,100064.09
2023-03-20T13:00:39.105Z,100053.69
2023-03-20T13:03:34.030Z,100049.38
2023-03-20T13:06:22.054Z,100048.50
2023-03-20T13:09:14.523Z,100048.44
2023-03-20T13:11:52.282Z,100041.53
2023-03-20T13:14:37.504Z,100046.78
2023-03-20T13:17:28.860Z,100025.78
2023-03-20T13:20:19.956Z,100039.66
2023-03-20T13:22:50.797Z,100035.19
2023-03-20T13:25:54.121Z,100041.25
2023-03-20T13:28:40.395Z,100031.59
2023-03-20T13:31:07.357Z,100037.47
2023-03-20T13:33:52.592Z,100025.19
2023-03-20T13:36:40.096Z,100025.13
2023-03-20T13:39:20.716Z,99997.13
2023-03-20T13:41:49.512Z,100023.13
2023-03-20T13:44:21.109Z,100007.47
2023-03-20T13:46:52.161Z,100012.53
2023-03-20T13:49:51.664Z,100010.19
2023-03-20T13:52:26.136Z,100007.47
2023-03-20T13:55:14.630Z,99999.78
2023-03-20T13:58:09.052Z,100008.56
2023-03-20T14:00:41.630Z,99989.16
2023-03-20T14:03:32.457Z,99997.22
2023-03-20T14:05:59.516Z,99988.97
2023-03-20T14:08:32.678Z,99989.91
2023-03-20T14:11:21.427Z,99980.50
2023-03-20T14:13:52.234Z,99966.41
2023-03-20T14:16:20.396Z,99977.81
2023-03-20T14:19:12.200Z,99977.78
2023-03-20T14:21:45.134Z,99972.44
2023-03-20T14:24:16.014Z,99970.31
2023-03-20T14:26:43.794Z,99975.34
2023-03-20T14:29:10.670Z,99947.50
2023-03-20T14:31:42.086Z,99975.22
2023-03-20T14:34:09.609Z,99972.59
2023-03-20T14:36:54.652Z,99968.25
2023-03-20T14:39:43.846Z,99963.81
2023-03-20T14:42:32.380Z,99967.19
2023-03-20T14:45:16.106Z,99966.22
2023-03-20T14:47:43.447Z,99968.59
2023-03-20T14:50:18.887Z,99911.53
2023-03-20T14:53:05.602Z,99971.84
2023-03-20T14:55:47.164Z,99970.75
2023-03-20T14:58:43.801Z,99976.69
2023-03-20T15:01:39.670Z,99976.44
2023-03-20T15:04:21.549Z,99961.31
2023-03-20T15:06:54.013Z,99976.97
2023-03-20T15:09:24.647Z,99955.78
2023-03-20T15:11:53.902Z,99960.03
2023-03-20T15:14:26.488Z,99966.91
2023-03-20T15:17:01.245Z,99963.16
2023-03-20T15:19:28.874Z,99914.78
2023-03-20T15:21:56.558Z,99949.84
2023-03-20T15:24:30.353Z,99943.34
2023-03-20T15:27:02.118Z,99958.25
2023-03-20T15:29:31.235Z,99965.16
2023-03-20T15:32:13.329Z,99961.44
2023-03-20T15:34:42.636Z,99960.56
2023-03-20T15:37:16.243Z,99954.31
2023-03-20T15:39:49.258Z,99958.50
2023-03-20T15:42:19.728Z,99958.44
2023-03-20T15:44:48.851Z,99963.44
2023-03-20T15:47:20.997Z,99955.25
2023-03-20T15:49:57.100Z,99943.00
2023-03-20T15:52:43.803Z,99953.22
2023-03-20T15:55:19.997Z,99961.38
2023-03-20T15:57:50.395Z,99967.19
2023-03-20T16:00:27.418Z,99927.56
2023-03-20T16:02:55.185Z,99962.28
2023-03-20T16:05:26.458Z,99965.56
2023-03-20T16:07:54.384Z,99963.72
2023-03-20T16:10:29.254Z,99967.88
2023-03-20T16:12:56.994Z,99954.53
2023-03-20T16:15:27.839Z,99949.97
2023-03-20T16:17:57.753Z,99954.13
2023-03-20T16:20:30.002Z,99972.44
2023-03-20T16:23:03.271Z,99971.56
2023-03-20T16:25:30.431Z,99952.19
2023-03-20T16:27:58.654Z,99960.19
2023-03-20T16:30:30.790Z,99965.34
2023-03-20T16:33:15.898Z,99965.44
2023-03-20T16:35:49.233Z,99908.38
2023-03-20T16:38:29.375Z,99954.97
2023-03-20T16:41:14.318Z,99962.59
2023-03-20T16:43:41.401Z,99961.69
2023-03-20T16:46:08.637Z,99966.81
2023-03-20T16:48:40.147Z,99967.63
2023-03-20T16:51:29.458Z,99971.13
2023-03-20T16:54:04.106Z,99965.78
2023-03-20T16:56:40.553Z,99957.91
2023-03-20T16:59:09.281Z,99961.25
2023-03-20T17:01:41.361Z,99950.84
2023-03-20T17:04:19.042Z,99947.25
2023-03-20T17:06:52.774Z,99943.72
2023-03-20T17:09:26.452Z,99941.84
2023-03-20T17:12:18.302Z,99951.66
2023-03-20T17:14:45.746Z,99935.81
2023-03-20T17:17:19.536Z,99943.72
2023-03-20T17:19:49.808Z,99948.88
2023-03-20T17:22:22.352Z,99943.75
2023-03-20T17:24:50.605Z,99945.50
2023-03-20T17:27:19.233Z,99941.19
2023-03-20T17:29:47.529Z,99941.22
2023-03-20T17:32:20.355Z,99900.13
2023-03-20T17:34:47.311Z,99941.34
2023-03-20T17:37:29.825Z,99944.00
2023-03-20T17:39:57.417Z,99941.19
2023-03-20T17:42:26.976Z,99928.09
2023-03-20T17:44:54.022Z,99930.59
2023-03-20T17:47:26.661Z,99912.13
2023-03-20T17:49:54.782Z,99930.50
2023-03-20T17:52:27.463Z,99924.13
2023-03-20T17:54:55.103Z,99939.75
2023-03-20T17:57:31.441Z,99921.22
2023-03-20T17:59:58.724Z,99933.56
2023-03-20T18:02:26.242Z,99928.31
2023-03-20T18:04:53.284Z,99901.84
2023-03-20T18:07:21.175Z,99903.56
2023-03-20T18:09:49.319Z,99933.16
2023-03-20T18:12:18.478Z,99924.22
2023-03-20T18:14:46.954Z,99926.78
2023-03-20T18:17:15.792Z,99926.78
2023-03-20T18:19:43.455Z,99924.28
2023-03-20T18:22:10.723Z,99916.41
2023-03-20T18:24:40.111Z,99919.94
2023-03-20T18:27:08.048Z,99893.56
2023-03-20T18:29:35.050Z,99914.66
2023-03-20T18:32:02.005Z,99919.69
2023-03-20T18:34:28.961Z,99908.50
2023-03-20T18:36:56.185Z,99910.09
2023-03-20T18:39:24.699Z,99906.66
2023-03-20T18:41:52.005Z,99904.75
2023-03-20T18:44:19.247Z,99872.22
2023-03-20T18:46:46.497Z,99851.19
2023-03-20T18:49:17.671Z,99892.69
2023-03-20T18:51:45.552Z,99897.88
2023-03-20T18:54:12.800Z,99884.78
2023-03-20T18:56:40.804Z,99891.66
2023-03-20T18:59:12.497Z,99889.13
2023-03-20T19:01:39.679Z,99886.44
2023-03-20T19:04:06.814Z,99875.06
2023-03-20T19:06:34.084Z,99876.78
2023-03-20T19:09:05.141Z,99871.44
2023-03-20T19:11:32.375Z,99856.38
2023-03-20T19:13:59.447Z,99885.16
2023-03-20T19:16:33.374Z,99887.63
2023-03-20T19:19:02.671Z,99889.16
2023-03-20T19:21:31.542Z,99889.00
2023-03-20T19:24:01.188Z,99868.91
2023-03-20T19:26:29.989Z,99871.25
2023-03-20T19:28:59.198Z,99857.22
2023-03-20T19:31:27.078Z,99868.56
2023-03-20T19:33:54.726Z,99876.50
2023-03-20T19:36:22.153Z,99881.78
2023-03-20T19:38:49.270Z,99878.28
2023-03-20T19:41:16.284Z,99883.47
2023-03-20T19:43:52.501Z,99872.94
2023-03-20T19:46:38.086Z,99858.84
2023-03-20T19:49:06.634Z,99862.47
2023-03-20T19:51:33.920Z,99870.38
2023-03-20T19:54:01.013Z,99871.25
2023-03-20T19:56:28.040Z,99854.88
2023-03-20T19:58:55.034Z,99858.38
2023-03-20T20:01:24.978Z,99868.13
2023-03-20T20:03:57.803Z,99849.03
2023-03-20T20:06:31.272Z,99861.50
2023-03-20T20:08:59.335Z,99774.09
2023-03-20T20:11:26.366Z,99846.03
2023-03-20T20:14:10.397Z,99847.72
2023-03-20T20:16:42.567Z,99838.13
2023-03-20T20:19:09.753Z,99837.44
2023-03-20T20:24:23.747Z,99836.25
2023-03-20T20:26:59.680Z,99837.88
2023-03-20T20:29:34.507Z,99826.59
2023-03-20T20:32:01.987Z,99833.50
2023-03-20T20:40:05.128Z,99818.16
2023-03-20T20:42:32.287Z,99815.69
2023-03-20T20:44:59.345Z,99806.19
2023-03-20T20:47:26.322Z,99799.81
2023-03-20T20:49:53.877Z,99808.56
2023-03-20T20:52:21.172Z,99785.88
2023-03-20T20:54:48.363Z,99807.59
2023-03-20T20:57:15.931Z,99808.31
2023-03-20T20:59:42.862Z,99801.41
2023-03-20T21:02:11.751Z,99798.84
2023-03-20T21:04:43.030Z,99790.16
2023-03-20T21:07:12.087Z,99795.22
2023-03-20T21:09:40.535Z,99790.06
2023-03-20T21:12:10.594Z,99789.25
2023-03-20T21:14:38.073Z,99781.44
2023-03-20T21:17:06.587Z,99783.00
2023-03-20T21:19:37.278Z,99782.09
2023-03-20T21:22:06.295Z,99781.09
2023-03-20T21:24:35.232Z,99731.41
2023-03-20T21:27:05.229Z,99780.47
2023-03-20T21:29:32.227Z,99780.47
2023-03-20T21:31:59.197Z,99778.78
2023-03-20T21:34:26.728Z,99775.38
2023-03-20T21:36:53.753Z,99774.41
2023-03-20T21:39:21.081Z,99772.00
2023-03-20T21:41:48.121Z,99732.56
2023-03-20T21:44:24.661Z,99772.06
2023-03-20T21:50:45.938Z,99750.84
2023-03-20T21:53:19.536Z,99765.09
2023-03-20T22:01:41.948Z,99745.28
2023-03-20T22:04:45.197Z,99748.94
2023-03-20T22:12:56.000Z,99722.75
2023-03-20T22:15:33.934Z,99722.09
2023-03-20T22:21:15.949Z,99725.66
2023-03-20T22:29:40.924Z,99727.84
2023-03-20T22:32:33.076Z,99731.31
2023-03-20T22:35:22.559Z,99722.81
2023-03-20T22:38:06.122Z,99666.00
2023-03-20T22:43:28.095Z,99724.25
2023-03-20T22:45:52.651Z,99713.63
2023-03-20T22:48:21.847Z,99698.56
2023-03-20T22:50:50.053Z,99705.00
2023-03-20T22:53:18.417Z,99704.16
2023-03-20T22:55:46.930Z,99684.00
2023-03-20T22:58:14.851Z,99694.09
2023-03-20T23:00:42.949Z,99680.31
2023-03-20T23:03:25.730Z,99696.16
2023-03-20T23:05:57.331Z,99688.47
2023-03-20T23:08:24.751Z,99682.47
2023-03-20T23:10:52.098Z,99661.50
2023-03-20T23:13:20.514Z,99684.22
2023-03-20T23:15:48.671Z,99674.66
2023-03-20T23:18:15.828Z,99672.16
2023-03-20T23:20:42.872Z,99673.91
2023-03-20T23:23:10.003Z,99628.53
2023-03-20T23:25:39.572Z,99618.78
2023-03-20T23:28:08.884Z,99666.13
2023-03-20T23:31:07.559Z,99668.91
2023-03-20T23:33:23.542Z,99656.53
2023-03-20T23:36:01.301Z,99644.31
2023-03-20T23:38:32.308Z,99661.69
2023-03-20T23:40:59.264Z,99655.44
2023-03-20T23:43:26.452Z,99652.81
2023-03-20T23:45:53.656Z,99646.78
2023-03-20T23:48:21.010Z,99655.72
2023-03-20T23:50:53.159Z,99636.56
2023-03-20T23:53:21.313Z,99649.75
2023-03-20T23:55:52.107Z,99642.75
2023-03-20T23:58:19.888Z,99637.53
